Terminal Aerodrome Forecast
Issued by NWS Miami, FL

Home | Current Version | Previous Version | Text Only | Print | Product List | Glossary On
Versions: 1 2 3 4 5 6 7 8 9 10 11 12 13 14 15 16 17 18 19 20 21 22 23 24
000
FTUS42 KMFL 241721
TAFPBI
TAF
KPBI 241721Z 2418/2518 05009KT P6SM VCTS SCT025CB BKN035 BKN150
      TEMPO 2418/2420 BKN020CB
     FM250000 06004KT P6SM VCSH SCT035
     FM251400 08009KT P6SM VCTS SCT035CB=

USA.gov is the U.S. government's official web portal to all federal, state and local government web resources and services.